Time,TemperatureF,DewpointF,PressureIn,WindDirection,WindDirectionDegrees,WindSpeedMPH,WindSpeedGustMPH,Humidity,HourlyPrecipIn,Conditions,Clouds,dailyrainin,SoftwareType,DateUTC
2013-09-06 00:00:00,60.3,53.1,28.15,WSW,248,0.0,4.0,77,0.00,,---,0.00,VWS V13.01,2013-09-06 07:00:00,
2013-09-06 00:03:00,62.1,54.5,24.81,WSW,246,0.0,0.0,76,0.00,,---,0.00,VWS V13.01,2013-09-06 07:03:00,
2013-09-06 00:04:00,60.2,53.3,28.15,NW,314,0.0,0.0,78,0.00,,---,0.00,VWS V13.01,2013-09-06 07:04:00,
2013-09-06 00:05:00,60.2,53.3,28.15,NW,314,0.0,0.0,78,0.00,,---,0.00,VWS V13.01,2013-09-06 07:05:00,
2013-09-06 00:06:00,60.2,53.3,28.15,NW,314,0.0,0.0,78,0.00,,---,0.00,VWS V13.01,2013-09-06 07:06:00,
2013-09-06 00:08:00,62.0,54.4,25.04,WSW,244,0.0,4.0,76,0.00,,---,0.00,VWS V13.01,2013-09-06 07:08:00,
2013-09-06 00:13:00,61.9,54.3,25.04,WSW,241,0.0,4.0,76,0.00,,---,0.00,VWS V13.01,2013-09-06 07:13:00,
2013-09-06 00:18:00,61.8,54.2,25.04,SSW,196,1.0,4.0,76,0.00,,---,0.00,VWS V13.01,2013-09-06 07:18:00,
2013-09-06 00:23:00,61.7,54.1,25.04,SSW,197,0.0,4.0,76,0.00,,---,0.00,VWS V13.01,2013-09-06 07:23:00,
2013-09-06 00:28:00,61.6,54.0,25.04,SSW,197,0.0,4.0,76,0.00,,---,0.00,VWS V13.01,2013-09-06 07:28:00,
2013-09-06 00:33:00,61.4,53.8,25.04,SSW,202,0.0,4.0,76,0.00,,---,0.00,VWS V13.01,2013-09-06 07:33:00,
2013-09-06 00:38:00,61.3,53.7,25.04,SSW,200,0.0,4.0,76,0.00,,---,0.00,VWS V13.01,2013-09-06 07:38:00,
2013-09-06 00:43:00,61.1,53.5,28.15,SSW,200,0.0,4.0,76,0.00,,---,0.00,VWS V13.01,2013-09-06 07:43:00,
2013-09-06 00:48:00,60.9,53.3,28.15,SSW,199,0.0,4.0,76,0.00,,---,0.00,VWS V13.01,2013-09-06 07:48:00,
2013-09-06 00:53:00,60.7,53.5,28.15,SSW,199,0.0,4.0,77,0.00,,---,0.00,VWS V13.01,2013-09-06 07:53:00,
2013-09-06 00:58:00,60.4,53.2,28.15,SSW,200,0.0,4.0,77,0.00,,---,0.00,VWS V13.01,2013-09-06 07:58:00,
2013-09-06 01:07:00,60.2,53.3,28.15,NW,314,0.0,0.0,78,0.00,,---,0.00,VWS V13.01,2013-09-06 08:07:00,
2013-09-06 01:12:00,60.2,53.3,28.15,NW,314,0.0,0.0,78,0.00,,---,0.00,VWS V13.01,2013-09-06 08:12:00,
2013-09-06 01:17:00,60.1,53.2,28.15,NW,314,0.0,0.0,78,0.00,,---,0.00,VWS V13.01,2013-09-06 08:17:00,
2013-09-06 01:22:00,60.0,53.1,28.15,NW,314,0.0,0.0,78,0.00,,---,0.00,VWS V13.01,2013-09-06 08:22:00,
2013-09-06 01:27:00,59.8,52.9,28.15,SSW,200,0.0,2.0,78,0.00,,---,0.00,VWS V13.01,2013-09-06 08:27:00,
2013-09-06 01:32:00,59.6,52.7,19.47,SSW,200,0.0,2.0,78,0.00,,---,0.00,VWS V13.01,2013-09-06 08:32:00,
2013-09-06 01:37:00,59.5,53.0,19.47,SSW,200,0.0,2.0,79,0.00,,---,0.00,VWS V13.01,2013-09-06 08:37:00,
2013-09-06 01:42:00,59.4,52.9,19.47,SSW,200,0.0,2.0,79,0.00,,---,0.00,VWS V13.01,2013-09-06 08:42:00,
2013-09-06 01:47:00,59.3,52.8,19.47,SSW,200,0.0,2.0,79,0.00,,---,0.00,VWS V13.01,2013-09-06 08:47:00,
2013-09-06 01:52:00,59.1,52.6,19.47,SSW,200,0.0,2.0,79,0.00,,---,0.00,VWS V13.01,2013-09-06 08:52:00,
2013-09-06 01:57:00,59.0,52.8,19.47,SSW,200,0.0,2.0,80,0.00,,---,0.00,VWS V13.01,2013-09-06 08:57:00,
2013-09-06 02:02:00,59.0,52.8,19.47,SSW,200,0.0,2.0,80,0.00,,---,0.00,VWS V13.01,2013-09-06 09:02:00,
2013-09-06 02:07:00,59.0,52.5,18.26,SSW,200,0.0,0.0,79,0.00,,---,0.00,VWS V13.01,2013-09-06 09:07:00,
2013-09-06 02:12:00,58.9,52.8,18.26,SSW,200,0.0,1.0,80,0.00,,---,0.00,VWS V13.01,2013-09-06 09:12:00,
2013-09-06 02:17:00,58.9,52.8,18.26,SSW,200,0.0,1.0,80,0.00,,---,0.00,VWS V13.01,2013-09-06 09:17:00,
2013-09-06 02:22:00,58.8,52.7,18.26,SSW,200,0.0,1.0,80,0.00,,---,0.00,VWS V13.01,2013-09-06 09:22:00,
2013-09-06 02:27:00,58.7,52.6,18.26,SSW,200,0.0,1.0,80,0.00,,---,0.00,VWS V13.01,2013-09-06 09:27:00,
2013-09-06 02:32:00,58.7,52.2,18.26,SSW,200,0.0,1.0,79,0.00,,---,0.00,VWS V13.01,2013-09-06 09:32:00,
2013-09-06 02:37:00,58.5,52.0,18.26,SSW,200,0.0,1.0,79,0.00,,---,0.00,VWS V13.01,2013-09-06 09:37:00,
2013-09-06 02:42:00,58.4,52.3,18.26,SSW,200,0.0,1.0,80,0.00,,---,0.00,VWS V13.01,2013-09-06 09:42:00,
2013-09-06 02:47:00,58.1,52.0,18.26,SSW,200,0.0,1.0,80,0.00,,---,0.00,VWS V13.01,2013-09-06 09:47:00,
2013-09-06 02:52:00,57.9,51.8,18.26,SSW,200,0.0,1.0,80,0.00,,---,0.00,VWS V13.01,2013-09-06 09:52:00,
2013-09-06 02:57:00,57.7,51.6,18.26,SSW,200,0.0,1.0,80,0.00,,---,0.00,VWS V13.01,2013-09-06 09:57:00,
2013-09-06 03:02:00,57.6,51.8,18.26,SSW,200,0.0,1.0,81,0.00,,---,0.00,VWS V13.01,2013-09-06 10:02:00,
2013-09-06 03:07:00,57.5,51.7,18.26,SSW,200,0.0,0.0,81,0.00,,---,0.00,VWS V13.01,2013-09-06 10:07:00,
2013-09-06 03:12:00,57.4,51.6,18.26,SSW,200,0.0,0.0,81,0.00,,---,0.00,VWS V13.01,2013-09-06 10:12:00,
2013-09-06 03:17:00,57.3,51.5,18.26,SSW,200,0.0,0.0,81,0.00,,---,0.00,VWS V13.01,2013-09-06 10:17:00,
2013-09-06 03:22:00,57.2,51.4,18.26,SSW,200,0.0,0.0,81,0.00,,---,0.00,VWS V13.01,2013-09-06 10:22:00,
2013-09-06 03:27:00,57.1,51.3,18.26,SSW,200,0.0,0.0,81,0.00,,---,0.00,VWS V13.01,2013-09-06 10:27:00,
2013-09-06 03:32:00,56.9,51.5,24.69,SSW,200,0.0,0.0,82,0.00,,---,0.00,VWS V13.01,2013-09-06 10:32:00,
2013-09-06 03:37:00,56.8,51.0,24.69,SSW,200,0.0,0.0,81,0.00,,---,0.00,VWS V13.01,2013-09-06 10:37:00,
2013-09-06 03:42:00,56.7,50.9,24.69,SSW,200,0.0,0.0,81,0.00,,---,0.00,VWS V13.01,2013-09-06 10:42:00,
2013-09-06 03:47:00,56.6,51.2,24.69,SSW,200,0.0,0.0,82,0.00,,---,0.00,VWS V13.01,2013-09-06 10:47:00,
2013-09-06 03:52:00,56.4,51.0,24.69,SSW,200,0.0,0.0,82,0.00,,---,0.00,VWS V13.01,2013-09-06 10:52:00,
2013-09-06 03:57:00,56.3,50.9,24.69,SSW,200,0.0,0.0,82,0.00,,---,0.00,VWS V13.01,2013-09-06 10:57:00,
2013-09-06 04:02:00,56.2,50.8,24.69,SSW,200,0.0,0.0,82,0.00,,---,0.00,VWS V13.01,2013-09-06 11:02:00,
2013-09-06 04:07:00,56.2,50.8,24.69,SSW,200,0.0,0.0,82,0.00,,---,0.00,VWS V13.01,2013-09-06 11:07:00,
2013-09-06 04:12:00,56.1,50.7,24.69,SSW,200,0.0,0.0,82,0.00,,---,0.00,VWS V13.01,2013-09-06 11:12:00,
2013-09-06 04:17:00,56.0,50.6,24.69,SSW,200,0.0,0.0,82,0.00,,---,0.00,VWS V13.01,2013-09-06 11:17:00,
2013-09-06 04:22:00,55.9,50.8,24.69,SSW,200,0.0,0.0,83,0.00,,---,0.00,VWS V13.01,2013-09-06 11:22:00,
2013-09-06 04:27:00,55.9,50.8,24.69,SSW,200,0.0,0.0,83,0.00,,---,0.00,VWS V13.01,2013-09-06 11:27:00,
2013-09-06 04:32:00,55.7,50.6,24.69,SSW,200,0.0,0.0,83,0.00,,---,0.00,VWS V13.01,2013-09-06 11:32:00,
2013-09-06 04:37:00,55.6,50.5,24.69,SSW,200,0.0,0.0,83,0.00,,---,0.00,VWS V13.01,2013-09-06 11:37:00,
2013-09-06 04:42:00,55.6,50.8,24.69,SSW,200,0.0,0.0,84,0.00,,---,0.00,VWS V13.01,2013-09-06 11:42:00,
2013-09-06 04:47:00,55.5,50.8,24.69,SSW,200,0.0,0.0,84,0.00,,---,0.00,VWS V13.01,2013-09-06 11:47:00,
2013-09-06 04:52:00,55.4,50.7,24.69,SSW,200,0.0,0.0,84,0.00,,---,0.00,VWS V13.01,2013-09-06 11:52:00,
2013-09-06 04:57:00,55.3,50.6,24.69,SSW,200,0.0,0.0,84,0.00,,---,0.00,VWS V13.01,2013-09-06 11:57:00,
2013-09-06 05:02:00,55.3,50.9,24.69,SSW,200,0.0,0.0,85,0.00,,---,0.00,VWS V13.01,2013-09-06 12:02:00,
2013-09-06 05:07:00,55.3,50.9,24.69,SSW,200,0.0,0.0,85,0.00,,---,0.00,VWS V13.01,2013-09-06 12:07:00,
2013-09-06 05:12:00,55.3,50.9,24.69,SSW,200,0.0,0.0,85,0.00,,---,0.00,VWS V13.01,2013-09-06 12:12:00,
2013-09-06 05:17:00,55.2,50.8,24.69,SSW,200,0.0,0.0,85,0.00,,---,0.00,VWS V13.01,2013-09-06 12:17:00,
2013-09-06 05:21:00,55.3,50.9,24.69,SSW,200,0.0,0.0,85,0.00,,---,0.00,VWS V13.01,2013-09-06 12:21:00,
2013-09-06 05:26:00,55.2,50.8,24.69,SSW,200,0.0,0.0,85,0.00,,---,0.00,VWS V13.01,2013-09-06 12:26:00,
2013-09-06 05:31:00,55.2,50.8,24.69,SSW,200,0.0,0.0,85,0.00,,---,0.00,VWS V13.01,2013-09-06 12:31:00,
2013-09-06 05:36:00,55.1,51.0,24.69,SSW,200,0.0,0.0,86,0.00,,---,0.00,VWS V13.01,2013-09-06 12:36:00,
2013-09-06 05:41:00,55.1,51.0,24.69,SSW,200,0.0,0.0,86,0.00,,---,0.00,VWS V13.01,2013-09-06 12:41:00,
2013-09-06 05:46:00,55.0,50.9,24.69,SSW,200,0.0,0.0,86,0.00,,---,0.00,VWS V13.01,2013-09-06 12:46:00,
2013-09-06 05:51:00,55.0,50.9,24.69,SSW,200,0.0,0.0,86,0.00,,---,0.00,VWS V13.01,2013-09-06 12:51:00,
2013-09-06 05:56:00,55.0,50.9,24.69,SSW,200,0.0,0.0,86,0.00,,---,0.00,VWS V13.01,2013-09-06 12:56:00,
2013-09-06 06:01:00,54.9,50.5,24.69,SSW,200,0.0,0.0,85,0.00,,---,0.00,VWS V13.01,2013-09-06 13:01:00,
2013-09-06 06:06:00,54.8,50.4,24.69,SSW,200,0.0,0.0,85,0.00,,---,0.00,VWS V13.01,2013-09-06 13:06:00,
2013-09-06 06:11:00,54.7,50.3,24.69,SSW,200,0.0,0.0,85,0.00,,---,0.00,VWS V13.01,2013-09-06 13:11:00,
2013-09-06 06:16:00,54.6,50.5,24.69,SSW,200,0.0,0.0,86,0.00,,---,0.00,VWS V13.01,2013-09-06 13:16:00,
2013-09-06 06:21:00,54.5,50.4,24.69,SSW,200,0.0,0.0,86,0.00,,---,0.00,VWS V13.01,2013-09-06 13:21:00,
2013-09-06 06:26:00,54.4,50.3,24.69,SSW,200,0.0,0.0,86,0.00,,---,0.00,VWS V13.01,2013-09-06 13:26:00,
2013-09-06 06:31:00,54.3,50.2,24.69,SSW,200,0.0,0.0,86,0.00,,---,0.00,VWS V13.01,2013-09-06 13:31:00,
2013-09-06 06:36:00,54.3,50.2,24.58,SSW,200,0.0,0.0,86,0.00,,---,0.00,VWS V13.01,2013-09-06 13:36:00,
2013-09-06 06:41:00,54.2,50.1,24.58,SSW,200,0.0,0.0,86,0.00,,---,0.00,VWS V13.01,2013-09-06 13:41:00,
2013-09-06 06:46:00,54.2,50.1,24.58,SSW,200,0.0,0.0,86,0.00,,---,0.00,VWS V13.01,2013-09-06 13:46:00,
2013-09-06 06:51:00,54.2,50.1,24.58,SSW,200,0.0,0.0,86,0.00,,---,0.00,VWS V13.01,2013-09-06 13:51:00,
2013-09-06 06:56:00,54.1,50.0,24.58,SSW,200,0.0,0.0,86,0.00,,---,0.00,VWS V13.01,2013-09-06 13:56:00,
2013-09-06 07:01:00,54.1,50.0,24.58,SSW,200,0.0,0.0,86,0.00,,---,0.00,VWS V13.01,2013-09-06 14:01:00,
2013-09-06 07:06:00,54.1,50.0,24.58,SSW,200,0.0,0.0,86,0.00,,---,0.00,VWS V13.01,2013-09-06 14:06:00,
2013-09-06 07:11:00,54.1,50.0,24.81,SSW,200,0.0,0.0,86,0.00,,---,0.00,VWS V13.01,2013-09-06 14:11:00,
2013-09-06 07:16:00,54.1,50.0,24.81,SSW,200,0.0,0.0,86,0.00,,---,0.00,VWS V13.01,2013-09-06 14:16:00,
2013-09-06 07:21:00,54.1,50.0,24.11,SSW,200,0.0,0.0,86,0.00,,---,0.00,VWS V13.01,2013-09-06 14:21:00,
2013-09-06 07:26:00,54.1,50.0,24.11,SSW,200,0.0,0.0,86,0.00,,---,0.00,VWS V13.01,2013-09-06 14:26:00,
2013-09-06 07:31:00,54.1,50.0,24.11,SSW,200,0.0,0.0,86,0.00,,---,0.00,VWS V13.01,2013-09-06 14:31:00,
2013-09-06 07:36:00,54.2,50.1,24.11,SSW,200,0.0,0.0,86,0.00,,---,0.00,VWS V13.01,2013-09-06 14:36:00,
2013-09-06 07:41:00,54.2,50.1,24.11,SSW,200,0.0,0.0,86,0.00,,---,0.00,VWS V13.01,2013-09-06 14:41:00,
2013-09-06 07:46:00,54.4,50.3,24.11,SSW,200,0.0,0.0,86,0.00,,---,0.00,VWS V13.01,2013-09-06 14:46:00,
2013-09-06 07:51:00,54.7,50.9,24.11,SSW,200,0.0,0.0,87,0.00,,---,0.00,VWS V13.01,2013-09-06 14:51:00,
2013-09-06 07:56:00,55.1,51.3,24.11,SSW,200,0.0,0.0,87,0.00,,---,0.00,VWS V13.01,2013-09-06 14:56:00,
2013-09-06 08:01:00,55.6,51.8,24.11,SSW,200,0.0,0.0,87,0.00,,---,0.00,VWS V13.01,2013-09-06 15:01:00,
2013-09-06 08:06:00,56.1,52.3,24.11,SSW,200,0.0,0.0,87,0.00,,---,0.00,VWS V13.01,2013-09-06 15:06:00,
2013-09-06 08:11:00,56.7,52.6,24.11,SSW,200,0.0,0.0,86,0.00,,---,0.00,VWS V13.01,2013-09-06 15:11:00,
2013-09-06 08:16:00,57.4,53.2,24.11,SSW,200,0.0,0.0,86,0.00,,---,0.00,VWS V13.01,2013-09-06 15:16:00,
2013-09-06 08:21:00,58.2,53.4,24.11,SSW,200,0.0,0.0,84,0.00,,---,0.00,VWS V13.01,2013-09-06 15:21:00,
2013-09-06 08:26:00,58.9,53.8,24.11,SSW,200,0.0,0.0,83,0.00,,---,0.00,VWS V13.01,2013-09-06 15:26:00,
2013-09-06 08:31:00,59.8,54.3,24.11,SSW,200,0.0,0.0,82,0.00,,---,0.00,VWS V13.01,2013-09-06 15:31:00,
2013-09-06 08:36:00,60.7,54.8,24.11,SSW,200,0.0,0.0,81,0.00,,---,0.00,VWS V13.01,2013-09-06 15:36:00,
2013-09-06 08:41:00,61.6,55.7,24.11,SSW,200,0.0,0.0,81,0.00,,---,0.00,VWS V13.01,2013-09-06 15:41:00,
2013-09-06 08:46:00,62.4,55.8,24.11,SSW,200,0.0,0.0,79,0.00,,---,0.00,VWS V13.01,2013-09-06 15:46:00,
2013-09-06 08:51:00,63.2,56.2,24.11,SSW,200,0.0,0.0,78,0.00,,---,0.00,VWS V13.01,2013-09-06 15:51:00,
2013-09-06 08:56:00,64.0,56.3,24.11,SSW,200,0.0,0.0,76,0.00,,---,0.00,VWS V13.01,2013-09-06 15:56:00,
2013-09-06 09:01:00,64.8,56.7,24.11,SSW,198,0.0,1.0,75,0.00,,---,0.00,VWS V13.01,2013-09-06 16:01:00,
2013-09-06 09:06:00,65.4,56.9,24.11,SSW,196,0.0,2.0,74,0.00,,---,0.00,VWS V13.01,2013-09-06 16:06:00,
2013-09-06 09:11:00,66.1,56.8,19.47,SSW,195,0.0,2.0,72,0.00,,---,0.00,VWS V13.01,2013-09-06 16:11:00,
2013-09-06 09:16:00,66.7,57.0,19.47,SSW,192,0.0,2.0,71,0.00,,---,0.00,VWS V13.01,2013-09-06 16:16:00,
2013-09-06 09:21:00,67.2,57.5,19.47,SSW,192,0.0,2.0,71,0.00,,---,0.00,VWS V13.01,2013-09-06 16:21:00,
2013-09-06 09:26:00,67.8,57.7,19.47,SSW,193,0.0,2.0,70,0.00,,---,0.00,VWS V13.01,2013-09-06 16:26:00,
2013-09-06 09:31:00,68.4,57.4,19.47,South,175,0.0,2.0,68,0.00,,---,0.00,VWS V13.01,2013-09-06 16:31:00,
2013-09-06 09:36:00,68.8,57.4,28.15,South,175,0.0,2.0,67,0.00,,---,0.00,VWS V13.01,2013-09-06 16:36:00,
2013-09-06 09:41:00,69.3,57.0,26.71,ESE,117,0.0,2.0,65,0.00,,---,0.00,VWS V13.01,2013-09-06 16:41:00,
2013-09-06 09:46:00,69.5,56.4,26.71,ESE,117,0.0,2.0,63,0.00,,---,0.00,VWS V13.01,2013-09-06 16:46:00,
2013-09-06 09:51:00,69.9,56.3,26.71,ESE,117,0.0,2.0,62,0.00,,---,0.00,VWS V13.01,2013-09-06 16:51:00,
2013-09-06 09:56:00,70.5,56.9,26.95,ESE,117,0.0,2.0,62,0.00,,---,0.00,VWS V13.01,2013-09-06 16:56:00,
2013-09-06 10:01:00,71.0,56.0,26.95,ESE,117,0.0,2.0,59,0.00,,---,0.00,VWS V13.01,2013-09-06 17:01:00,
2013-09-06 10:06:00,71.6,56.5,25.97,ESE,117,0.0,0.0,59,0.00,,---,0.00,VWS V13.01,2013-09-06 17:06:00,
2013-09-06 10:11:00,72.3,56.2,25.74,ESE,117,0.0,0.0,57,0.00,,---,0.00,VWS V13.01,2013-09-06 17:11:00,
2013-09-06 10:16:00,73.0,56.9,26.64,ESE,117,1.0,1.0,57,0.00,,---,0.00,VWS V13.01,2013-09-06 17:16:00,
2013-09-06 10:21:00,73.7,56.5,25.97,ESE,117,0.0,1.0,55,0.00,,---,0.00,VWS V13.01,2013-09-06 17:21:00,
2013-09-06 10:26:00,74.3,55.6,25.97,ESE,117,0.0,1.0,52,0.00,,---,0.00,VWS V13.01,2013-09-06 17:26:00,
2013-09-06 10:31:00,74.8,57.1,32.01,ESE,117,0.0,1.0,54,0.00,,---,0.00,VWS V13.01,2013-09-06 17:31:00,
2013-09-06 10:36:00,75.3,57.0,32.01,ESE,115,0.0,2.0,53,0.00,,---,0.00,VWS V13.01,2013-09-06 17:36:00,
2013-09-06 10:41:00,75.6,55.7,30.80,ESE,113,0.0,2.0,50,0.00,,---,0.00,VWS V13.01,2013-09-06 17:41:00,
2013-09-06 10:46:00,76.1,56.7,30.80,ESE,110,4.0,5.0,51,0.00,,---,0.00,VWS V13.01,2013-09-06 17:46:00,
2013-09-06 10:51:00,76.4,55.8,30.80,East,101,0.0,5.0,49,0.00,,---,0.00,VWS V13.01,2013-09-06 17:51:00,
2013-09-06 10:56:00,76.6,55.5,30.80,ENE,69,1.0,5.0,48,0.00,,---,0.00,VWS V13.01,2013-09-06 17:56:00,
2013-09-06 11:01:00,76.9,54.6,30.80,ENE,67,1.0,5.0,46,0.00,,---,0.00,VWS V13.01,2013-09-06 18:01:00,
2013-09-06 11:06:00,77.1,54.8,32.01,East,82,0.0,1.0,46,0.00,,---,0.00,VWS V13.01,2013-09-06 18:06:00,
2013-09-06 11:11:00,77.6,55.2,32.01,East,79,0.0,1.0,46,0.00,,---,0.00,VWS V13.01,2013-09-06 18:11:00,
2013-09-06 11:16:00,78.1,55.0,32.01,East,96,0.0,4.0,45,0.00,,---,0.00,VWS V13.01,2013-09-06 18:16:00,
2013-09-06 11:21:00,78.4,54.7,32.01,East,97,2.0,4.0,44,0.00,,---,0.00,VWS V13.01,2013-09-06 18:21:00,
2013-09-06 11:26:00,78.8,53.1,32.01,East,101,0.0,4.0,41,0.00,,---,0.00,VWS V13.01,2013-09-06 18:26:00,
2013-09-06 11:31:00,79.3,53.6,32.01,ESE,102,0.0,4.0,41,0.00,,---,0.00,VWS V13.01,2013-09-06 18:31:00,
2013-09-06 11:36:00,80.0,54.2,32.01,ESE,103,0.0,4.0,41,0.00,,---,0.00,VWS V13.01,2013-09-06 18:36:00,
2013-09-06 11:41:00,80.7,52.8,32.01,East,95,0.0,4.0,38,0.00,,---,0.00,VWS V13.01,2013-09-06 18:41:00,
2013-09-06 11:46:00,81.1,53.1,32.01,East,94,0.0,4.0,38,0.00,,---,0.00,VWS V13.01,2013-09-06 18:46:00,
2013-09-06 11:51:00,81.3,51.8,32.01,East,88,0.0,4.0,36,0.00,,---,0.00,VWS V13.01,2013-09-06 18:51:00,
2013-09-06 11:56:00,81.6,52.1,32.01,East,87,1.0,4.0,36,0.00,,---,0.00,VWS V13.01,2013-09-06 18:56:00,
2013-09-06 12:01:00,82.0,52.4,32.01,East,87,0.0,4.0,36,0.00,,---,0.00,VWS V13.01,2013-09-06 19:01:00,
2013-09-06 12:06:00,82.2,53.4,32.01,ENE,71,0.0,5.0,37,0.00,,---,0.00,VWS V13.01,2013-09-06 19:06:00,
2013-09-06 12:11:00,82.3,51.9,32.01,NE,39,0.0,5.0,35,0.00,,---,0.00,VWS V13.01,2013-09-06 19:11:00,
2013-09-06 12:16:00,82.5,52.1,32.01,NE,46,3.0,5.0,35,0.00,,---,0.00,VWS V13.01,2013-09-06 19:16:00,
2013-09-06 12:21:00,82.8,53.9,32.01,East,96,0.0,5.0,37,0.00,,---,0.00,VWS V13.01,2013-09-06 19:21:00,
2013-09-06 12:26:00,83.0,52.6,30.80,East,90,2.0,5.0,35,0.00,,---,0.00,VWS V13.01,2013-09-06 19:26:00,
2013-09-06 12:31:00,82.9,54.0,30.80,East,86,1.0,5.0,37,0.00,,---,0.00,VWS V13.01,2013-09-06 19:31:00,
2013-09-06 12:36:00,83.0,52.6,30.80,SE,141,0.0,5.0,35,0.00,,---,0.00,VWS V13.01,2013-09-06 19:36:00,
2013-09-06 12:41:00,83.4,52.1,30.80,East,82,1.0,5.0,34,0.00,,---,0.00,VWS V13.01,2013-09-06 19:41:00,
2013-09-06 12:46:00,83.3,52.8,19.47,ENE,78,5.0,6.0,35,0.00,,---,0.00,VWS V13.01,2013-09-06 19:46:00,
2013-09-06 12:51:00,82.9,53.2,19.47,SE,128,7.0,7.0,36,0.00,,---,0.00,VWS V13.01,2013-09-06 19:51:00,
2013-09-06 12:56:00,83.1,51.9,19.47,East,96,6.0,7.0,34,0.00,,---,0.00,VWS V13.01,2013-09-06 19:56:00,
2013-09-06 13:01:00,83.2,53.5,19.47,ENE,78,4.0,7.0,36,0.00,,---,0.00,VWS V13.01,2013-09-06 20:01:00,
2013-09-06 13:06:00,83.4,52.9,19.47,ENE,62,0.0,4.0,35,0.00,,---,0.00,VWS V13.01,2013-09-06 20:06:00,
2013-09-06 13:11:00,83.9,51.8,19.47,ENE,65,1.0,4.0,33,0.00,,---,0.00,VWS V13.01,2013-09-06 20:11:00,
2013-09-06 13:16:00,84.3,52.1,19.47,ENE,69,4.0,5.0,33,0.00,,---,0.00,VWS V13.01,2013-09-06 20:16:00,
2013-09-06 13:21:00,84.3,51.3,19.47,ENE,75,0.0,5.0,32,0.00,,---,0.00,VWS V13.01,2013-09-06 20:21:00,
2013-09-06 13:26:00,85.0,51.9,19.47,NNE,28,1.0,5.0,32,0.00,,---,0.00,VWS V13.01,2013-09-06 20:26:00,
2013-09-06 13:31:00,85.5,51.4,19.47,East,89,0.0,5.0,31,0.00,,---,0.00,VWS V13.01,2013-09-06 20:31:00,
2013-09-06 13:36:00,85.6,51.5,19.47,North,349,0.0,7.0,31,0.00,,---,0.00,VWS V13.01,2013-09-06 20:36:00,
2013-09-06 13:41:00,86.0,51.9,19.47,East,96,0.0,7.0,31,0.00,,---,0.00,VWS V13.01,2013-09-06 20:41:00,
2013-09-06 13:46:00,85.9,50.9,28.06,ENE,61,0.0,7.0,30,0.00,,---,0.00,VWS V13.01,2013-09-06 20:46:00,
2013-09-06 13:51:00,86.1,52.8,28.06,ESE,106,4.0,7.0,32,0.00,,---,0.00,VWS V13.01,2013-09-06 20:51:00,
2013-09-06 13:56:00,86.3,52.1,28.06,ENE,76,4.0,7.0,31,0.00,,---,0.00,VWS V13.01,2013-09-06 20:56:00,
2013-09-06 14:01:00,86.3,52.1,28.06,East,90,0.0,7.0,31,0.00,,---,0.00,VWS V13.01,2013-09-06 21:01:00,
2013-09-06 14:06:00,86.6,52.4,28.06,ESE,116,4.0,5.0,31,0.00,,---,0.00,VWS V13.01,2013-09-06 21:06:00,
2013-09-06 14:11:00,87.0,51.8,28.06,ENE,76,2.0,6.0,30,0.00,,---,0.00,VWS V13.01,2013-09-06 21:11:00,
2013-09-06 14:16:00,87.3,51.2,28.06,East,99,5.0,6.0,29,0.00,,---,0.00,VWS V13.01,2013-09-06 21:16:00,
2013-09-06 14:21:00,87.7,51.5,29.24,NNE,25,0.0,6.0,29,0.00,,---,0.00,VWS V13.01,2013-09-06 21:21:00,
2013-09-06 14:26:00,88.3,52.0,29.24,ESE,119,3.0,7.0,29,0.00,,---,0.00,VWS V13.01,2013-09-06 21:26:00,
2013-09-06 14:31:00,88.2,50.0,28.03,East,91,0.0,7.0,27,0.00,,---,0.00,VWS V13.01,2013-09-06 21:31:00,
2013-09-06 14:36:00,88.5,52.2,28.03,East,91,3.0,7.0,29,0.00,,---,0.00,VWS V13.01,2013-09-06 21:36:00,
2013-09-06 14:41:00,88.3,45.8,28.03,ENE,78,2.0,9.0,23,0.00,,---,0.00,VWS V13.01,2013-09-06 21:41:00,
2013-09-06 14:46:00,88.6,47.2,28.03,ENE,60,1.0,9.0,24,0.00,,---,0.00,VWS V13.01,2013-09-06 21:46:00,
2013-09-06 14:51:00,88.9,47.5,28.03,ENE,72,3.0,9.0,24,0.00,,---,0.00,VWS V13.01,2013-09-06 21:51:00,
2013-09-06 14:56:00,89.2,45.4,28.03,ESE,105,3.0,9.0,22,0.00,,---,0.00,VWS V13.01,2013-09-06 21:56:00,
2013-09-06 15:01:00,89.7,49.2,28.03,ESE,115,0.0,9.0,25,0.00,,---,0.00,VWS V13.01,2013-09-06 22:01:00,
2013-09-06 15:06:00,90.2,49.7,28.03,East,95,1.0,5.0,25,0.00,,---,0.00,VWS V13.01,2013-09-06 22:06:00,
2013-09-06 15:11:00,90.5,47.7,28.03,ESE,122,0.0,5.0,23,0.00,,---,0.00,VWS V13.01,2013-09-06 22:11:00,
2013-09-06 15:16:00,91.3,45.9,28.06,SE,138,0.0,5.0,21,0.00,,---,0.00,VWS V13.01,2013-09-06 22:16:00,
2013-09-06 15:21:00,92.3,46.8,28.06,ESE,113,2.0,5.0,21,0.00,,---,0.00,VWS V13.01,2013-09-06 22:21:00,
2013-09-06 15:26:00,92.2,46.7,28.06,East,87,5.0,5.0,21,0.00,,---,0.00,VWS V13.01,2013-09-06 22:26:00,
2013-09-06 15:31:00,91.6,46.2,28.06,East,84,0.0,5.0,21,0.00,,---,0.00,VWS V13.01,2013-09-06 22:31:00,
2013-09-06 15:36:00,90.8,46.8,28.06,East,88,0.0,6.0,22,0.00,,---,0.00,VWS V13.01,2013-09-06 22:36:00,
2013-09-06 15:41:00,90.8,50.2,28.06,East,90,0.0,6.0,25,0.00,,---,0.00,VWS V13.01,2013-09-06 22:41:00,
2013-09-06 15:46:00,91.0,46.9,28.06,North,360,0.0,6.0,22,0.00,,---,0.00,VWS V13.01,2013-09-06 22:46:00,
2013-09-06 15:51:00,91.3,45.9,28.06,ENE,77,3.0,6.0,21,0.00,,---,0.00,VWS V13.01,2013-09-06 22:51:00,
2013-09-06 15:56:00,91.0,44.4,28.06,East,85,0.0,6.0,20,0.00,,---,0.00,VWS V13.01,2013-09-06 22:56:00,
2013-09-06 16:01:00,91.0,45.7,28.06,East,96,2.0,6.0,21,0.00,,---,0.00,VWS V13.01,2013-09-06 23:01:00,
2013-09-06 16:06:00,91.1,43.2,28.06,East,87,0.0,4.0,19,0.00,,---,0.00,VWS V13.01,2013-09-06 23:06:00,
2013-09-06 16:11:00,91.5,46.1,28.06,SE,129,0.0,6.0,21,0.00,,---,0.00,VWS V13.01,2013-09-06 23:11:00,
2013-09-06 16:16:00,92.1,46.6,28.06,ESE,113,0.0,6.0,21,0.00,,---,0.00,VWS V13.01,2013-09-06 23:16:00,
2013-09-06 16:21:00,92.8,44.5,28.06,SSE,148,0.0,6.0,19,0.00,,---,0.00,VWS V13.01,2013-09-06 23:21:00,
2013-09-06 16:26:00,93.5,49.0,28.06,SE,133,2.0,6.0,22,0.00,,---,0.00,VWS V13.01,2013-09-06 23:26:00,
2013-09-06 16:31:00,93.1,47.4,28.06,East,86,2.0,6.0,21,0.00,,---,0.00,VWS V13.01,2013-09-06 23:31:00,
2013-09-06 16:36:00,92.4,46.8,28.06,East,87,0.0,6.0,21,0.00,,---,0.00,VWS V13.01,2013-09-06 23:36:00,
2013-09-06 16:41:00,92.7,45.8,28.06,ENE,63,0.0,6.0,20,0.00,,---,0.00,VWS V13.01,2013-09-06 23:41:00,
2013-09-06 16:46:00,92.4,48.1,28.06,SE,134,0.0,6.0,22,0.00,,---,0.00,VWS V13.01,2013-09-06 23:46:00,
2013-09-06 16:51:00,92.9,47.2,28.06,ESE,123,0.0,6.0,21,0.00,,---,0.00,VWS V13.01,2013-09-06 23:51:00,
2013-09-06 16:56:00,92.9,46.0,28.06,East,82,3.0,6.0,20,0.00,,---,0.00,VWS V13.01,2013-09-06 23:56:00,
2013-09-06 17:01:00,92.3,46.8,28.06,ESE,103,3.0,6.0,21,0.00,,---,0.00,VWS V13.01,2013-09-07 00:01:00,
2013-09-06 17:06:00,92.5,46.9,28.06,East,86,3.0,5.0,21,0.00,,---,0.00,VWS V13.01,2013-09-07 00:06:00,
2013-09-06 17:11:00,92.0,47.8,28.06,East,81,1.0,5.0,22,0.00,,---,0.00,VWS V13.01,2013-09-07 00:11:00,
2013-09-06 17:16:00,91.6,49.7,28.06,East,97,1.0,5.0,24,0.00,,---,0.00,VWS V13.01,2013-09-07 00:16:00,
2013-09-06 17:21:00,91.5,49.7,28.06,North,9,0.0,6.0,24,0.00,,---,0.00,VWS V13.01,2013-09-07 00:21:00,
2013-09-06 17:26:00,91.8,49.9,28.06,North,5,1.0,6.0,24,0.00,,---,0.00,VWS V13.01,2013-09-07 00:26:00,
2013-09-06 17:31:00,91.3,49.5,28.06,NW,318,4.0,9.0,24,0.00,,---,0.00,VWS V13.01,2013-09-07 00:31:00,
2013-09-06 17:36:00,90.6,50.0,28.06,NNW,341,1.0,9.0,25,0.00,,---,0.00,VWS V13.01,2013-09-07 00:36:00,
2013-09-06 17:41:00,90.0,49.5,28.06,NNW,333,3.0,11.0,25,0.00,,---,0.00,VWS V13.01,2013-09-07 00:41:00,
2013-09-06 17:46:00,89.3,48.9,28.06,NW,316,5.0,11.0,25,0.00,,---,0.00,VWS V13.01,2013-09-07 00:46:00,
2013-09-06 17:51:00,88.8,49.5,28.06,NNW,332,5.0,11.0,26,0.00,,---,0.00,VWS V13.01,2013-09-07 00:51:00,
2013-09-06 17:56:00,88.3,49.1,28.06,NW,304,7.0,14.0,26,0.00,,---,0.00,VWS V13.01,2013-09-07 00:56:00,
2013-09-06 18:01:00,87.9,49.8,28.06,West,272,4.0,14.0,27,0.00,,---,0.00,VWS V13.01,2013-09-07 01:01:00,
2013-09-06 18:06:00,87.8,49.7,28.45,NW,312,2.0,6.0,27,0.00,,---,0.00,VWS V13.01,2013-09-07 01:06:00,
2013-09-06 18:11:00,87.5,49.4,28.45,West,267,5.0,12.0,27,0.00,,---,0.00,VWS V13.01,2013-09-07 01:11:00,
2013-09-06 18:16:00,87.2,50.2,28.45,NW,306,0.0,12.0,28,0.00,,---,0.00,VWS V13.01,2013-09-07 01:16:00,
2013-09-06 18:21:00,87.1,49.1,28.45,NNW,340,5.0,12.0,27,0.00,,---,0.00,VWS V13.01,2013-09-07 01:21:00,
2013-09-06 18:26:00,86.8,49.8,28.45,West,264,0.0,12.0,28,0.00,,---,0.00,VWS V13.01,2013-09-07 01:26:00,
2013-09-06 18:31:00,86.8,48.8,28.45,NNW,340,1.0,12.0,27,0.00,,---,0.00,VWS V13.01,2013-09-07 01:31:00,
2013-09-06 18:36:00,86.9,49.9,28.45,East,90,0.0,12.0,28,0.00,,---,0.00,VWS V13.01,2013-09-07 01:36:00,
2013-09-06 18:41:00,87.1,49.1,28.45,West,259,0.0,12.0,27,0.00,,---,0.00,VWS V13.01,2013-09-07 01:41:00,
2013-09-06 18:46:00,86.6,49.7,28.45,SSW,211,0.0,12.0,28,0.00,,---,0.00,VWS V13.01,2013-09-07 01:46:00,
2013-09-06 18:51:00,85.7,48.9,28.45,West,278,8.0,12.0,28,0.00,,---,0.00,VWS V13.01,2013-09-07 01:51:00,
2013-09-06 18:56:00,84.7,48.0,28.45,NW,304,0.0,12.0,28,0.00,,---,0.00,VWS V13.01,2013-09-07 01:56:00,
2013-09-06 19:01:00,84.3,47.7,28.45,West,269,2.0,12.0,28,0.00,,---,0.00,VWS V13.01,2013-09-07 02:01:00,
2013-09-06 19:06:00,83.9,48.3,28.45,NNW,338,0.0,7.0,29,0.00,,---,0.00,VWS V13.01,2013-09-07 02:06:00,
2013-09-06 19:11:00,83.3,47.8,28.45,WSW,257,1.0,7.0,29,0.00,,---,0.00,VWS V13.01,2013-09-07 02:11:00,
2013-09-06 19:16:00,82.7,48.1,28.45,NW,317,0.0,7.0,30,0.00,,---,0.00,VWS V13.01,2013-09-07 02:16:00,
2013-09-06 19:21:00,82.4,48.8,28.45,NW,317,0.0,7.0,31,0.00,,---,0.00,VWS V13.01,2013-09-07 02:21:00,
2013-09-06 19:26:00,82.0,47.5,28.45,NW,317,0.0,7.0,30,0.00,,---,0.00,VWS V13.01,2013-09-07 02:26:00,
2013-09-06 19:31:00,81.7,48.2,28.45,NW,317,0.0,7.0,31,0.00,,---,0.00,VWS V13.01,2013-09-07 02:31:00,
2013-09-06 19:36:00,81.4,49.6,28.45,NW,317,0.0,7.0,33,0.00,,---,0.00,VWS V13.01,2013-09-07 02:36:00,
2013-09-06 19:41:00,80.9,49.9,28.45,NW,317,0.0,7.0,34,0.00,,---,0.00,VWS V13.01,2013-09-07 02:41:00,
2013-09-06 19:46:00,80.4,49.5,28.45,NW,314,0.0,7.0,34,0.00,,---,0.00,VWS V13.01,2013-09-07 02:46:00,
2013-09-06 19:51:00,79.8,49.0,28.45,WNW,284,0.0,7.0,34,0.00,,---,0.00,VWS V13.01,2013-09-07 02:51:00,
2013-09-06 19:56:00,79.3,49.3,28.45,WNW,284,0.0,7.0,35,0.00,,---,0.00,VWS V13.01,2013-09-07 02:56:00,
2013-09-06 19:57:00,74.4,47.9,28.45,WNW,283,0.0,1.0,39,0.00,,---,0.00,VWS V13.01,2013-09-07 02:57:00,
2013-09-06 19:58:00,74.4,47.9,28.45,WNW,283,0.0,1.0,39,0.00,,---,0.00,VWS V13.01,2013-09-07 02:58:00,
2013-09-06 19:59:00,74.4,47.9,28.45,WNW,283,0.0,1.0,39,0.00,,---,0.00,VWS V13.01,2013-09-07 02:59:00,
2013-09-06 20:00:00,74.3,47.8,28.45,WNW,283,0.0,1.0,39,0.00,,---,0.00,VWS V13.01,2013-09-07 03:00:00,
2013-09-06 20:01:00,78.8,48.9,28.45,WNW,284,0.0,7.0,35,0.00,,---,0.00,VWS V13.01,2013-09-07 03:01:00,
2013-09-06 20:02:00,74.3,48.4,28.45,WSW,254,0.0,2.0,40,0.00,,---,0.00,VWS V13.01,2013-09-07 03:02:00,
2013-09-06 20:03:00,74.2,47.7,28.45,WSW,250,0.0,2.0,39,0.00,,---,0.00,VWS V13.01,2013-09-07 03:03:00,
2013-09-06 20:04:00,74.2,48.3,28.45,WSW,250,0.0,2.0,40,0.00,,---,0.00,VWS V13.01,2013-09-07 03:04:00,
2013-09-06 20:05:00,74.2,48.3,28.45,WSW,250,0.0,2.0,40,0.00,,---,0.00,VWS V13.01,2013-09-07 03:05:00,
2013-09-06 20:06:00,78.4,49.3,28.45,WNW,283,0.0,1.0,36,0.00,,---,0.00,VWS V13.01,2013-09-07 03:06:00,
2013-09-06 20:07:00,74.1,47.6,28.45,WSW,250,0.0,2.0,39,0.00,,---,0.00,VWS V13.01,2013-09-07 03:07:00,
2013-09-06 20:11:00,78.0,49.7,28.45,WNW,283,0.0,1.0,37,0.00,,---,0.00,VWS V13.01,2013-09-07 03:11:00,
2013-09-06 20:16:00,77.7,48.7,28.45,WNW,284,0.0,1.0,36,0.00,,---,0.00,VWS V13.01,2013-09-07 03:16:00,
2013-09-06 20:21:00,77.3,49.0,28.45,WNW,284,0.0,1.0,37,0.00,,---,0.00,VWS V13.01,2013-09-07 03:21:00,
2013-09-06 20:26:00,76.8,48.6,28.45,WNW,284,0.0,1.0,37,0.00,,---,0.00,VWS V13.01,2013-09-07 03:26:00,
2013-09-06 20:31:00,76.4,48.2,28.45,WNW,284,0.0,1.0,37,0.00,,---,0.00,VWS V13.01,2013-09-07 03:31:00,
2013-09-06 20:36:00,76.0,47.9,28.45,WNW,284,0.0,1.0,37,0.00,,---,0.00,VWS V13.01,2013-09-07 03:36:00,
2013-09-06 20:41:00,75.7,48.3,28.45,WNW,284,0.0,1.0,38,0.00,,---,0.00,VWS V13.01,2013-09-07 03:41:00,
2013-09-06 20:46:00,75.3,48.0,28.45,WNW,283,0.0,1.0,38,0.00,,---,0.00,VWS V13.01,2013-09-07 03:46:00,
2013-09-06 20:51:00,75.0,48.4,28.45,WNW,284,0.0,1.0,39,0.00,,---,0.00,VWS V13.01,2013-09-07 03:51:00,
2013-09-06 20:56:00,74.7,48.1,28.45,WNW,284,0.0,1.0,39,0.00,,---,0.00,VWS V13.01,2013-09-07 03:56:00,
2013-09-06 21:03:00,74.3,47.8,28.45,WNW,283,0.0,0.0,39,0.00,,---,0.00,VWS V13.01,2013-09-07 04:03:00,
2013-09-06 21:08:00,74.2,47.7,28.45,WSW,250,1.0,2.0,39,0.00,,---,0.00,VWS V13.01,2013-09-07 04:08:00,
2013-09-06 21:13:00,73.9,47.4,28.45,WSW,250,0.0,2.0,39,0.00,,---,0.00,VWS V13.01,2013-09-07 04:13:00,
2013-09-06 21:18:00,73.7,47.9,28.45,WSW,250,0.0,2.0,40,0.00,,---,0.00,VWS V13.01,2013-09-07 04:18:00,
2013-09-06 21:23:00,73.4,47.6,28.45,WSW,249,0.0,2.0,40,0.00,,---,0.00,VWS V13.01,2013-09-07 04:23:00,
2013-09-06 21:28:00,73.2,47.5,28.45,WSW,241,0.0,2.0,40,0.00,,---,0.00,VWS V13.01,2013-09-07 04:28:00,
2013-09-06 21:33:00,73.0,47.3,28.45,WSW,241,0.0,2.0,40,0.00,,---,0.00,VWS V13.01,2013-09-07 04:33:00,
2013-09-06 21:38:00,72.8,47.8,28.45,WSW,240,0.0,2.0,41,0.00,,---,0.00,VWS V13.01,2013-09-07 04:38:00,
2013-09-06 21:43:00,72.6,47.6,28.45,WSW,240,0.0,2.0,41,0.00,,---,0.00,VWS V13.01,2013-09-07 04:43:00,
2013-09-06 21:48:00,72.5,47.5,28.45,WSW,240,0.0,2.0,41,0.00,,---,0.00,VWS V13.01,2013-09-07 04:48:00,
2013-09-06 21:53:00,72.4,47.4,28.45,WSW,238,0.0,2.0,41,0.00,,---,0.00,VWS V13.01,2013-09-07 04:53:00,
2013-09-06 21:58:00,72.3,47.3,28.45,WSW,239,0.0,2.0,41,0.00,,---,0.00,VWS V13.01,2013-09-07 04:58:00,
2013-09-06 22:03:00,72.2,47.2,28.45,WSW,239,0.0,0.0,41,0.00,,---,0.00,VWS V13.01,2013-09-07 05:03:00,
2013-09-06 22:08:00,72.2,47.2,28.45,WSW,237,0.0,1.0,41,0.00,,---,0.00,VWS V13.01,2013-09-07 05:08:00,
2013-09-06 22:13:00,72.2,47.9,28.45,WSW,237,0.0,1.0,42,0.00,,---,0.00,VWS V13.01,2013-09-07 05:13:00,
2013-09-06 22:18:00,72.1,47.8,28.45,WSW,238,0.0,1.0,42,0.00,,---,0.00,VWS V13.01,2013-09-07 05:18:00,
2013-09-06 22:23:00,71.9,47.6,28.45,WSW,238,0.0,1.0,42,0.00,,---,0.00,VWS V13.01,2013-09-07 05:23:00,
2013-09-06 22:28:00,71.6,47.9,28.45,WSW,238,0.0,1.0,43,0.00,,---,0.00,VWS V13.01,2013-09-07 05:28:00,
2013-09-06 22:33:00,71.2,48.2,28.45,WSW,237,0.0,1.0,44,0.00,,---,0.00,VWS V13.01,2013-09-07 05:33:00,
2013-09-06 22:38:00,70.9,47.9,28.45,WSW,238,0.0,1.0,44,0.00,,---,0.00,VWS V13.01,2013-09-07 05:38:00,
2013-09-06 22:43:00,70.7,48.3,28.45,WSW,237,0.0,1.0,45,0.00,,---,0.00,VWS V13.01,2013-09-07 05:43:00,
2013-09-06 22:48:00,70.5,48.2,28.45,WSW,237,0.0,1.0,45,0.00,,---,0.00,VWS V13.01,2013-09-07 05:48:00,
2013-09-06 22:53:00,70.3,48.6,28.45,WSW,237,0.0,1.0,46,0.00,,---,0.00,VWS V13.01,2013-09-07 05:53:00,
2013-09-06 22:58:00,70.1,49.0,28.45,WSW,238,0.0,1.0,47,0.00,,---,0.00,VWS V13.01,2013-09-07 05:58:00,
2013-09-06 23:03:00,69.8,48.7,28.45,WSW,238,0.0,1.0,47,0.00,,---,0.00,VWS V13.01,2013-09-07 06:03:00,
2013-09-06 23:08:00,69.2,48.7,28.45,WSW,238,0.0,0.0,48,0.00,,---,0.00,VWS V13.01,2013-09-07 06:08:00,
2013-09-06 23:13:00,68.9,49.0,28.45,WSW,237,0.0,0.0,49,0.00,,---,0.00,VWS V13.01,2013-09-07 06:13:00,
2013-09-06 23:18:00,68.7,48.8,28.45,WSW,238,0.0,0.0,49,0.00,,---,0.00,VWS V13.01,2013-09-07 06:18:00,
2013-09-06 23:23:00,68.4,48.5,28.45,WSW,238,0.0,0.0,49,0.00,,---,0.00,VWS V13.01,2013-09-07 06:23:00,
2013-09-06 23:28:00,68.2,48.9,28.45,WSW,238,0.0,0.0,50,0.00,,---,0.00,VWS V13.01,2013-09-07 06:28:00,
2013-09-06 23:33:00,68.1,49.3,28.45,WSW,238,0.0,0.0,51,0.00,,---,0.00,VWS V13.01,2013-09-07 06:33:00,
2013-09-06 23:38:00,67.9,49.1,28.45,WSW,237,0.0,0.0,51,0.00,,---,0.00,VWS V13.01,2013-09-07 06:38:00,
2013-09-06 23:43:00,67.8,50.1,28.45,WSW,238,0.0,0.0,53,0.00,,---,0.00,VWS V13.01,2013-09-07 06:43:00,
2013-09-06 23:48:00,67.7,50.5,28.45,WSW,238,0.0,0.0,54,0.00,,---,0.00,VWS V13.01,2013-09-07 06:48:00,
2013-09-06 23:53:00,67.5,49.8,28.45,WSW,237,0.0,0.0,53,0.00,,---,0.00,VWS V13.01,2013-09-07 06:53:00,
2013-09-06 23:58:00,67.3,49.6,28.45,WSW,238,0.0,0.0,53,0.00,,---,0.00,VWS V13.01,2013-09-07 06:58:00,